Time;durP1;ratioP1;P1;durP2;ratioP2;P2;SDS_P1;SDS_P2;PMS_P1;PMS_P2;Temp;Humidity;BMP_temperature;BMP_pressure;BME280_temperature;BME280_humidity;BME280_pressure;Samples;Min_cycle;Max_cycle;Signal;HPM_P1;HPM_P2
2021/12/30 00:00:39;;;;;;;2.87;1.47;;;13.50;99.90;;;;;;5000794;28;21239;-71
2021/12/30 00:03:06;;;;;;;1.23;0.90;;;13.60;99.90;;;;;;5001186;28;20726;-70
2021/12/30 00:05:34;;;;;;;3.60;1.07;;;13.70;99.90;;;;;;4998764;28;20600;-72
2021/12/30 00:08:00;;;;;;;1.50;1.40;;;13.60;99.90;;;;;;4999628;28;20584;-71
2021/12/30 00:10:27;;;;;;;3.37;1.40;;;13.70;99.90;;;;;;5000906;28;20616;-71
2021/12/30 00:12:54;;;;;;;2.47;0.90;;;13.70;99.90;;;;;;4999377;28;20675;-71
2021/12/30 00:15:21;;;;;;;1.37;1.10;;;13.70;99.90;;;;;;5000260;28;20715;-71
2021/12/30 00:17:48;;;;;;;2.03;1.10;;;13.60;99.90;;;;;;5000075;28;20712;-72
2021/12/30 00:20:15;;;;;;;1.57;1.47;;;13.60;99.90;;;;;;5000408;28;20670;-72
2021/12/30 00:22:42;;;;;;;1.70;1.30;;;13.50;99.90;;;;;;4983486;28;20592;-72
2021/12/30 00:25:11;;;;;;;2.90;1.20;;;13.40;99.90;;;;;;4999825;28;20633;-73
2021/12/30 00:27:37;;;;;;;2.80;1.70;;;13.40;99.90;;;;;;4998787;28;20614;-72
2021/12/30 00:30:07;;;;;;;4.30;1.17;;;13.40;99.90;;;;;;4999779;28;20622;-71
2021/12/30 00:32:33;;;;;;;1.43;1.00;;;13.40;99.90;;;;;;4999135;28;20581;-71
2021/12/30 00:35:00;;;;;;;2.87;1.40;;;13.40;99.90;;;;;;4999743;28;20602;-71
2021/12/30 00:37:26;;;;;;;3.47;1.20;;;13.50;99.90;;;;;;5000345;28;21360;-72
2021/12/30 00:39:53;;;;;;;3.23;1.20;;;13.40;99.90;;;;;;4998387;28;20680;-73
2021/12/30 00:42:19;;;;;;;2.83;1.20;;;13.60;99.90;;;;;;4997760;28;20610;-72
2021/12/30 00:44:46;;;;;;;3.67;1.00;;;13.50;99.90;;;;;;4998727;28;21011;-71
2021/12/30 00:47:12;;;;;;;3.23;1.30;;;13.40;99.90;;;;;;4998283;28;20654;-71
2021/12/30 00:49:39;;;;;;;2.43;1.40;;;13.50;99.90;;;;;;4997896;28;21148;-72
2021/12/30 00:52:05;;;;;;;1.63;1.50;;;13.50;99.90;;;;;;4997578;28;20617;-71
2021/12/30 00:54:32;;;;;;;4.80;1.43;;;13.40;99.90;;;;;;4998479;28;20633;-72
2021/12/30 00:56:59;;;;;;;4.57;1.20;;;13.30;99.90;;;;;;4999781;28;20669;-72
2021/12/30 00:59:26;;;;;;;1.30;0.93;;;13.30;99.90;;;;;;4998950;28;20598;-73
2021/12/30 01:01:53;;;;;;;2.20;1.33;;;13.30;99.90;;;;;;4998156;28;21137;-72
2021/12/30 01:04:20;;;;;;;3.10;1.30;;;13.30;99.90;;;;;;4997348;28;20584;-72
2021/12/30 01:06:47;;;;;;;1.27;0.90;;;13.30;99.90;;;;;;4998457;28;20716;-72
2021/12/30 01:09:14;;;;;;;1.57;1.20;;;13.30;99.90;;;;;;4997519;28;20610;-72
2021/12/30 01:11:40;;;;;;;1.90;1.20;;;13.30;99.90;;;;;;4997959;28;20614;-72
2021/12/30 01:14:17;;;;;;;2.80;1.10;;;13.30;99.90;;;;;;4997453;28;20618;-71
2021/12/30 01:16:47;;;;;;;2.93;1.33;;;13.40;99.90;;;;;;4997579;28;20669;-72
2021/12/30 01:21:48;;;;;;;2.23;1.80;;;13.20;99.90;;;;;;4998843;28;20800;-72
2021/12/30 01:24:15;;;;;;;3.17;1.30;;;13.10;99.90;;;;;;4999083;28;20697;-72
2021/12/30 01:26:41;;;;;;;2.40;1.60;;;13.00;99.90;;;;;;4998461;28;20621;-72
2021/12/30 01:29:07;;;;;;;2.87;1.30;;;13.10;99.90;;;;;;4997566;28;20618;-72
2021/12/30 01:31:34;;;;;;;3.50;1.23;;;13.10;99.90;;;;;;4997290;28;20959;-72
2021/12/30 01:34:00;;;;;;;3.83;1.50;;;13.40;99.90;;;;;;4997077;28;20621;-72
2021/12/30 01:36:27;;;;;;;3.90;1.38;;;13.30;99.90;;;;;;4997677;28;20634;-72
2021/12/30 01:38:55;;;;;;;2.50;1.60;;;13.30;99.90;;;;;;4997164;28;20195;-71
2021/12/30 01:41:22;;;;;;;2.43;1.10;;;13.30;99.90;;;;;;4997673;28;20964;-72
2021/12/30 01:43:50;;;;;;;7.17;1.23;;;13.40;99.90;;;;;;4997815;28;21191;-71
2021/12/30 01:46:17;;;;;;;3.07;1.40;;;13.30;99.90;;;;;;4997730;28;20967;-71
2021/12/30 01:48:44;;;;;;;2.23;1.30;;;13.30;99.90;;;;;;4996978;28;20618;-72
2021/12/30 01:51:10;;;;;;;3.60;1.70;;;13.20;99.90;;;;;;4998853;28;20590;-71
2021/12/30 01:53:37;;;;;;;5.07;1.67;;;13.10;99.90;;;;;;4996355;28;20650;-71
2021/12/30 01:56:05;;;;;;;1.70;1.40;;;13.10;99.90;;;;;;4995808;28;20661;-70
2021/12/30 01:58:32;;;;;;;2.87;1.30;;;13.10;99.90;;;;;;4995909;28;20610;-70
2021/12/30 02:00:59;;;;;;;1.60;1.20;;;13.00;99.90;;;;;;4996629;28;20656;-71
2021/12/30 02:03:25;;;;;;;4.33;1.60;;;13.00;99.90;;;;;;4995811;28;20207;-71
2021/12/30 02:05:52;;;;;;;3.90;1.30;;;13.10;99.90;;;;;;4994629;28;21062;-71
2021/12/30 02:08:20;;;;;;;3.43;1.37;;;13.20;99.90;;;;;;4995937;28;20609;-71
2021/12/30 02:10:48;;;;;;;3.00;1.60;;;13.20;99.90;;;;;;4997046;28;20645;-71
2021/12/30 02:13:17;;;;;;;2.73;1.13;;;13.30;99.90;;;;;;4997800;28;20709;-69
2021/12/30 02:15:44;;;;;;;2.10;1.27;;;13.20;99.90;;;;;;4997429;28;20632;-71
2021/12/30 02:18:10;;;;;;;4.23;1.50;;;13.20;99.90;;;;;;4998126;28;20622;-70
2021/12/30 02:20:52;;;;;;;3.07;1.00;;;13.20;99.90;;;;;;4999010;28;20714;-70
2021/12/30 02:23:34;;;;;;;4.33;1.40;;;13.20;99.90;;;;;;4998603;28;21202;-71
2021/12/30 02:26:05;;;;;;;1.83;1.20;;;13.20;99.90;;;;;;4997810;28;20673;-70
2021/12/30 02:28:34;;;;;;;3.30;1.00;;;13.20;99.90;;;;;;4996636;28;20628;-70
2021/12/30 02:31:05;;;;;;;4.03;1.73;;;13.10;99.90;;;;;;4998453;28;20592;-70
2021/12/30 02:33:32;;;;;;;5.10;1.47;;;13.00;99.90;;;;;;4998041;28;20966;-70
2021/12/30 02:36:00;;;;;;;3.07;1.10;;;13.10;99.90;;;;;;4996303;28;20677;-70
2021/12/30 02:38:26;;;;;;;6.83;1.00;;;13.20;99.90;;;;;;4997427;28;20610;-70
2021/12/30 02:40:56;;;;;;;2.07;0.90;;;13.30;99.90;;;;;;4997238;28;20629;-73
2021/12/30 02:43:28;;;;;;;1.00;0.90;;;13.30;99.90;;;;;;4996723;28;20614;-70
2021/12/30 02:45:57;;;;;;;3.53;1.23;;;13.30;99.90;;;;;;4996790;28;20589;-70
2021/12/30 02:48:29;;;;;;;1.43;0.77;;;13.40;99.90;;;;;;4995597;28;20656;-70
2021/12/30 02:50:58;;;;;;;1.50;1.40;;;13.30;99.90;;;;;;4995709;28;20929;-70
2021/12/30 02:53:25;;;;;;;1.60;0.80;;;13.40;99.90;;;;;;4995808;28;20618;-70
2021/12/30 02:55:53;;;;;;;1.67;1.10;;;13.30;99.90;;;;;;4994119;28;21160;-70
2021/12/30 02:58:25;;;;;;;1.10;0.90;;;13.30;99.90;;;;;;4977509;28;20617;-71
2021/12/30 03:01:12;;;;;;;35.08;20.30;;;13.30;99.90;;;;;;4988457;28;20681;-70
2021/12/30 03:03:39;;;;;;;14.23;12.23;;;13.20;99.90;;;;;;4976355;28;20195;-70
2021/12/30 03:06:08;;;;;;;3.47;2.47;;;13.20;99.90;;;;;;4978944;28;20686;-70
2021/12/30 03:08:35;;;;;;;4.57;2.00;;;13.10;99.90;;;;;;4978437;28;20622;-71
2021/12/30 03:11:03;;;;;;;1.77;1.30;;;13.10;99.90;;;;;;4978380;28;20660;-70
2021/12/30 03:13:31;;;;;;;1.30;1.07;;;13.10;99.90;;;;;;4979345;28;20588;-70
2021/12/30 03:16:08;;;;;;;37.67;33.73;;;13.10;99.90;;;;;;4961152;28;20691;-70
2021/12/30 03:18:36;;;;;;;6.10;5.60;;;13.00;99.90;;;;;;4978210;28;20662;-70
2021/12/30 03:21:05;;;;;;;3.73;3.53;;;13.00;99.90;;;;;;4977893;28;20789;-70
2021/12/30 03:23:31;;;;;;;4.47;3.87;;;13.10;99.90;;;;;;4976726;28;20604;-71
2021/12/30 03:25:58;;;;;;;3.00;1.93;;;13.10;99.90;;;;;;4975545;28;21132;-71
2021/12/30 03:28:24;;;;;;;4.87;3.03;;;13.10;99.90;;;;;;4975748;28;20669;-71
2021/12/30 03:30:51;;;;;;;3.80;3.50;;;13.10;99.90;;;;;;4976319;28;20610;-71
2021/12/30 03:33:20;;;;;;;1.57;1.47;;;13.10;99.90;;;;;;4975228;28;20689;-71
2021/12/30 03:35:47;;;;;;;4.77;1.23;;;13.00;99.90;;;;;;4976318;28;20933;-71
2021/12/30 03:38:13;;;;;;;2.23;2.10;;;13.00;99.90;;;;;;4976044;28;21084;-70
2021/12/30 03:40:40;;;;;;;1.00;1.00;;;13.00;99.90;;;;;;4977059;28;21317;-71
2021/12/30 03:43:06;;;;;;;2.00;0.87;;;13.00;99.90;;;;;;4975814;28;20611;-70
2021/12/30 03:45:32;;;;;;;0.90;0.80;;;12.90;99.90;;;;;;4959290;28;20619;-72
2021/12/30 03:47:59;;;;;;;1.53;1.00;;;12.90;99.90;;;;;;4975946;28;20735;-71
2021/12/30 03:50:29;;;;;;;2.53;2.33;;;12.90;99.90;;;;;;4959416;28;20601;-70
2021/12/30 03:52:58;;;;;;;1.77;1.10;;;12.90;99.90;;;;;;4962325;28;20634;-71
2021/12/30 03:55:28;;;;;;;1.00;0.90;;;12.90;99.90;;;;;;4980098;28;20700;-71
2021/12/30 03:57:54;;;;;;;1.97;1.07;;;12.80;99.90;;;;;;4979768;28;20667;-70
2021/12/30 04:00:23;;;;;;;0.93;0.83;;;12.80;99.90;;;;;;4980075;28;20622;-71
2021/12/30 04:02:49;;;;;;;4.27;0.80;;;12.80;99.90;;;;;;4961900;28;20634;-71
2021/12/30 04:05:17;;;;;;;0.93;0.80;;;12.70;99.90;;;;;;4979824;28;20637;-71
2021/12/30 04:07:44;;;;;;;0.90;0.90;;;12.80;99.90;;;;;;4979070;28;20646;-71
2021/12/30 04:10:13;;;;;;;1.00;0.90;;;12.80;99.90;;;;;;4978928;28;21227;-71
2021/12/30 04:12:44;;;;;;;0.90;0.90;;;12.90;99.90;;;;;;4979229;28;20672;-71
2021/12/30 04:15:10;;;;;;;0.80;0.80;;;13.00;99.90;;;;;;4961477;28;20620;-71
2021/12/30 04:17:37;;;;;;;0.77;0.77;;;12.90;99.90;;;;;;4961676;28;20712;-71
2021/12/30 04:20:08;;;;;;;1.10;1.00;;;13.00;99.90;;;;;;4978491;28;20622;-71
2021/12/30 04:22:35;;;;;;;1.00;1.00;;;13.00;99.90;;;;;;4978760;28;20608;-72
2021/12/30 04:25:02;;;;;;;0.73;0.73;;;12.90;99.90;;;;;;4945335;28;20631;-71
2021/12/30 04:27:29;;;;;;;1.10;0.80;;;12.90;99.90;;;;;;4979108;28;20589;-70
2021/12/30 04:29:55;;;;;;;1.77;0.90;;;13.00;99.90;;;;;;4979426;28;20980;-71
2021/12/30 04:32:22;;;;;;;0.80;0.80;;;13.00;99.90;;;;;;4979477;28;20653;-71
2021/12/30 04:34:48;;;;;;;1.47;1.10;;;12.90;99.90;;;;;;4979785;28;20618;-70
2021/12/30 04:37:15;;;;;;;2.55;0.90;;;13.00;99.90;;;;;;4978485;28;20640;-71
2021/12/30 04:39:41;;;;;;;1.43;1.00;;;13.00;99.90;;;;;;4977961;28;20207;-70
2021/12/30 04:42:08;;;;;;;1.17;0.97;;;13.00;99.90;;;;;;4979019;28;20602;-70
2021/12/30 04:44:34;;;;;;;1.47;1.37;;;12.90;99.90;;;;;;4978669;28;20668;-71
2021/12/30 04:47:01;;;;;;;1.13;1.02;;;13.00;99.90;;;;;;4976276;28;21046;-71
2021/12/30 04:49:27;;;;;;;1.40;1.30;;;12.90;99.90;;;;;;4977151;28;20215;-71
2021/12/30 04:51:54;;;;;;;1.40;1.30;;;13.00;99.90;;;;;;4978153;28;20652;-71
2021/12/30 04:54:20;;;;;;;1.50;1.40;;;12.90;99.90;;;;;;4960327;28;20681;-71
2021/12/30 04:56:47;;;;;;;3.28;1.80;;;12.90;99.90;;;;;;4977640;28;20662;-71
2021/12/30 04:59:13;;;;;;;2.10;1.90;;;12.90;99.90;;;;;;4977796;28;20203;-71
2021/12/30 05:01:40;;;;;;;2.30;2.10;;;12.90;99.90;;;;;;4978077;28;20618;-71
2021/12/30 05:04:06;;;;;;;2.30;2.20;;;12.90;99.90;;;;;;4977869;28;20611;-71
2021/12/30 05:06:34;;;;;;;2.80;2.30;;;12.90;99.90;;;;;;4977606;28;20626;-71
2021/12/30 05:09:00;;;;;;;2.50;2.30;;;12.90;99.90;;;;;;4976728;28;21090;-71
2021/12/30 05:11:27;;;;;;;5.53;2.33;;;12.80;99.90;;;;;;4977111;28;20685;-71
2021/12/30 05:13:53;;;;;;;2.97;2.70;;;12.80;99.90;;;;;;4977550;28;20303;-71
2021/12/30 05:16:20;;;;;;;3.60;3.30;;;12.80;99.90;;;;;;4977488;28;20596;-71
2021/12/30 05:18:48;;;;;;;3.17;2.45;;;12.70;99.90;;;;;;4978057;28;20199;-71
2021/12/30 05:21:15;;;;;;;2.90;2.75;;;12.70;99.90;;;;;;4976190;28;20289;-71
2021/12/30 05:23:41;;;;;;;4.07;2.60;;;12.70;99.90;;;;;;4976715;28;20204;-71
2021/12/30 05:26:07;;;;;;;3.95;3.20;;;12.70;99.90;;;;;;4976492;28;20652;-72
2021/12/30 05:28:34;;;;;;;3.97;3.57;;;12.70;99.90;;;;;;4977279;28;20196;-72
2021/12/30 05:31:00;;;;;;;3.53;3.20;;;12.70;99.90;;;;;;4977216;28;20611;-72
2021/12/30 05:33:27;;;;;;;5.10;3.97;;;12.70;99.90;;;;;;4977296;28;20211;-72
2021/12/30 05:35:53;;;;;;;5.00;4.50;;;12.70;99.90;;;;;;4960030;28;20597;-72
2021/12/30 05:38:20;;;;;;;5.70;4.70;;;12.60;99.90;;;;;;4978272;28;20230;-72
2021/12/30 05:40:46;;;;;;;4.97;4.47;;;12.60;99.90;;;;;;4959715;28;20622;-72
2021/12/30 05:43:12;;;;;;;5.05;4.55;;;12.60;99.90;;;;;;4976649;28;20637;-72
2021/12/30 05:45:39;;;;;;;4.80;4.40;;;12.60;99.90;;;;;;4976860;28;20203;-72
2021/12/30 05:48:05;;;;;;;4.10;3.80;;;12.60;99.90;;;;;;4977684;28;20211;-72
2021/12/30 05:50:32;;;;;;;4.55;4.25;;;12.60;99.90;;;;;;4959810;28;20614;-72
2021/12/30 05:52:58;;;;;;;4.63;4.13;;;12.60;99.90;;;;;;4977080;28;20211;-72
2021/12/30 05:55:25;;;;;;;7.65;4.13;;;12.60;99.90;;;;;;4959417;28;20974;-72
2021/12/30 05:57:54;;;;;;;3.70;3.37;;;12.60;99.90;;;;;;4977716;28;20226;-72
2021/12/30 06:00:22;;;;;;;4.13;3.80;;;12.70;99.90;;;;;;4977513;28;20586;-72
2021/12/30 06:02:49;;;;;;;4.53;4.23;;;12.70;99.90;;;;;;4976663;28;20281;-72
2021/12/30 06:05:15;;;;;;;4.07;3.72;;;12.70;99.90;;;;;;4976720;28;20625;-72
2021/12/30 06:07:42;;;;;;;3.90;3.07;;;12.70;99.90;;;;;;4976632;28;20226;-72
2021/12/30 06:10:09;;;;;;;4.33;4.03;;;12.70;99.90;;;;;;4976760;28;20594;-72
2021/12/30 06:12:35;;;;;;;3.35;2.70;;;12.70;99.90;;;;;;4977153;28;20593;-72
2021/12/30 06:15:03;;;;;;;2.43;2.23;;;12.70;99.90;;;;;;4974949;28;20203;-72
2021/12/30 06:17:29;;;;;;;2.70;2.50;;;12.70;99.90;;;;;;4975952;28;20669;-72
2021/12/30 06:19:56;;;;;;;2.00;1.90;;;12.70;99.90;;;;;;4975918;28;20261;-72
2021/12/30 06:22:23;;;;;;;3.23;2.30;;;12.80;99.90;;;;;;4976345;28;20658;-72
2021/12/30 06:24:49;;;;;;;4.03;2.87;;;12.70;99.90;;;;;;4977335;28;20599;-71
2021/12/30 06:27:15;;;;;;;3.40;2.40;;;12.80;99.90;;;;;;4976845;28;20605;-74
2021/12/30 06:29:42;;;;;;;2.60;2.40;;;12.80;99.90;;;;;;4977303;28;20615;-72
2021/12/30 06:32:08;;;;;;;3.10;2.90;;;12.70;99.90;;;;;;4976510;28;20630;-72
2021/12/30 06:34:35;;;;;;;7.40;2.70;;;12.80;99.90;;;;;;4975452;28;21262;-72
2021/12/30 06:37:01;;;;;;;2.13;2.03;;;12.80;99.90;;;;;;4974974;28;20666;-72
2021/12/30 06:39:28;;;;;;;4.60;2.40;;;12.80;99.90;;;;;;4976507;28;20619;-72
2021/12/30 06:41:54;;;;;;;2.43;2.33;;;12.80;99.90;;;;;;4975071;28;20637;-72
2021/12/30 06:44:21;;;;;;;2.80;1.93;;;12.80;99.90;;;;;;4958813;28;20611;-72
2021/12/30 06:46:57;;;;;;;2.17;2.00;;;12.70;99.90;;;;;;4976748;28;20614;-72
2021/12/30 06:49:25;;;;;;;3.20;2.33;;;12.70;99.90;;;;;;4976420;28;21200;-71
2021/12/30 06:51:51;;;;;;;2.30;2.00;;;12.70;99.90;;;;;;4976470;28;20597;-72
2021/12/30 06:54:18;;;;;;;1.73;1.63;;;12.80;99.90;;;;;;4976414;28;20593;-72
2021/12/30 06:56:44;;;;;;;2.10;2.00;;;12.80;99.90;;;;;;4975952;28;20696;-72
2021/12/30 06:59:14;;;;;;;1.50;1.40;;;12.70;99.90;;;;;;4976619;28;20955;-72
2021/12/30 07:01:44;;;;;;;2.03;1.93;;;12.70;99.90;;;;;;4976310;28;20608;-72
2021/12/30 07:04:11;;;;;;;2.20;1.90;;;12.70;99.90;;;;;;4976389;28;20581;-72
2021/12/30 07:06:37;;;;;;;2.23;2.03;;;12.70;99.90;;;;;;4966081;28;20629;-72
2021/12/30 07:09:04;;;;;;;4.50;1.75;;;12.70;99.90;;;;;;4976529;28;20633;-72
2021/12/30 07:11:30;;;;;;;1.67;1.57;;;12.70;99.90;;;;;;4976399;28;20628;-71
2021/12/30 07:13:57;;;;;;;3.97;1.83;;;12.70;99.90;;;;;;4976611;28;20578;-72
2021/12/30 07:16:23;;;;;;;5.03;2.00;;;12.70;99.90;;;;;;4975860;28;20627;-72
2021/12/30 07:18:50;;;;;;;1.60;1.50;;;12.70;99.90;;;;;;4975819;28;20633;-72
2021/12/30 07:21:17;;;;;;;1.50;1.40;;;12.70;99.90;;;;;;4974847;28;20669;-72
2021/12/30 07:23:43;;;;;;;3.07;1.57;;;12.70;99.90;;;;;;4975243;28;20601;-72
2021/12/30 07:26:09;;;;;;;2.17;1.33;;;12.70;99.90;;;;;;4976276;28;20618;-71
2021/12/30 07:28:36;;;;;;;1.30;1.20;;;12.70;99.90;;;;;;4979211;28;20222;-72
2021/12/30 07:31:02;;;;;;;2.00;1.90;;;12.70;99.90;;;;;;4979176;28;20680;-72
2021/12/30 07:33:29;;;;;;;1.57;1.47;;;12.80;99.90;;;;;;4979245;28;20618;-72
2021/12/30 07:35:55;;;;;;;1.67;1.57;;;12.80;99.90;;;;;;4979516;28;20630;-72
2021/12/30 07:38:23;;;;;;;2.97;2.40;;;12.80;99.90;;;;;;4979874;28;21041;-72
2021/12/30 07:40:49;;;;;;;3.67;1.87;;;12.80;99.90;;;;;;4981471;28;20619;-72
2021/12/30 07:43:16;;;;;;;2.50;2.30;;;12.80;99.90;;;;;;4999171;28;20654;-72
2021/12/30 07:45:42;;;;;;;2.20;2.10;;;12.80;99.90;;;;;;4999366;28;20613;-72
2021/12/30 07:48:08;;;;;;;2.20;2.10;;;12.80;99.90;;;;;;4999634;28;20614;-70
2021/12/30 07:50:35;;;;;;;3.17;1.90;;;12.80;99.90;;;;;;4999634;28;20628;-71
2021/12/30 07:53:02;;;;;;;2.80;1.60;;;12.80;99.90;;;;;;4981106;28;20625;-72
2021/12/30 07:55:28;;;;;;;4.17;2.20;;;12.80;99.90;;;;;;4981927;28;20613;-72
2021/12/30 07:57:57;;;;;;;1.57;1.47;;;12.80;99.90;;;;;;4998952;28;20704;-71
2021/12/30 08:00:25;;;;;;;1.77;1.67;;;12.80;99.90;;;;;;4999120;28;20620;-71
2021/12/30 08:02:51;;;;;;;1.60;1.50;;;12.80;99.90;;;;;;4998589;28;20614;-71
2021/12/30 08:05:19;;;;;;;1.57;1.47;;;12.80;99.90;;;;;;4997918;28;20584;-71
2021/12/30 08:07:47;;;;;;;1.57;1.47;;;12.80;99.90;;;;;;4997886;28;21191;-71
2021/12/30 08:10:15;;;;;;;2.17;1.98;;;12.80;99.90;;;;;;4998175;28;20610;-72
2021/12/30 08:12:43;;;;;;;1.50;1.40;;;12.80;99.90;;;;;;4981196;28;20203;-72
2021/12/30 08:15:12;;;;;;;2.40;1.10;;;12.80;99.90;;;;;;4998659;28;21202;-72
2021/12/30 08:17:39;;;;;;;1.50;1.40;;;12.80;99.90;;;;;;4998529;28;21054;-72
2021/12/30 08:20:08;;;;;;;1.83;1.43;;;12.80;99.90;;;;;;4997480;28;20597;-72
2021/12/30 08:22:35;;;;;;;2.03;1.60;;;12.80;99.90;;;;;;4997415;28;20631;-70
2021/12/30 08:25:03;;;;;;;1.90;1.80;;;12.90;99.90;;;;;;4997001;28;20610;-71
2021/12/30 08:27:29;;;;;;;5.43;2.03;;;12.80;99.90;;;;;;4998029;28;20974;-72
2021/12/30 08:29:56;;;;;;;4.10;1.50;;;12.90;99.90;;;;;;4997644;28;21139;-71
2021/12/30 08:32:22;;;;;;;3.27;1.80;;;12.90;99.90;;;;;;4999407;28;20643;-71
2021/12/30 08:34:48;;;;;;;2.27;2.17;;;12.80;99.90;;;;;;5001180;28;20595;-71
2021/12/30 08:37:16;;;;;;;5.67;1.90;;;12.90;99.90;;;;;;4997877;28;20710;-72
2021/12/30 08:39:44;;;;;;;1.90;1.80;;;12.90;99.90;;;;;;4997995;28;21004;-72
2021/12/30 08:42:28;;;;;;;1.73;1.60;;;12.90;99.90;;;;;;4996976;28;20628;-72
2021/12/30 08:44:56;;;;;;;1.63;1.53;;;12.90;99.90;;;;;;4996613;28;20639;-70
2021/12/30 08:47:24;;;;;;;2.03;1.93;;;12.90;99.90;;;;;;4997327;28;20981;-70
2021/12/30 08:49:51;;;;;;;1.80;1.70;;;12.90;99.90;;;;;;4996425;28;20592;-71
2021/12/30 08:52:22;;;;;;;1.60;1.50;;;13.00;99.90;;;;;;4996107;28;20684;-71
2021/12/30 08:54:49;;;;;;;2.80;2.10;;;12.90;99.90;;;;;;4996112;28;21158;-69
2021/12/30 08:57:17;;;;;;;3.60;1.93;;;13.00;99.90;;;;;;4996080;28;20628;-70
2021/12/30 08:59:44;;;;;;;1.50;1.33;;;13.00;99.90;;;;;;4995868;28;20606;-70
2021/12/30 09:02:11;;;;;;;2.80;1.90;;;13.00;99.90;;;;;;4996335;28;20622;-71
2021/12/30 09:04:42;;;;;;;3.67;1.93;;;13.10;99.90;;;;;;4995855;28;20663;-70
2021/12/30 09:07:09;;;;;;;1.40;1.30;;;13.10;99.90;;;;;;4995534;28;20621;-70
2021/12/30 09:09:36;;;;;;;2.00;1.20;;;13.10;99.90;;;;;;4995590;28;20606;-71
2021/12/30 09:12:03;;;;;;;1.27;1.17;;;13.20;99.90;;;;;;4995604;28;20618;-71
2021/12/30 09:14:29;;;;;;;1.87;1.77;;;13.20;99.90;;;;;;4995716;28;20585;-69
2021/12/30 09:16:56;;;;;;;2.30;1.20;;;13.30;99.90;;;;;;4995837;28;20990;-71
2021/12/30 09:19:23;;;;;;;2.53;1.30;;;13.40;99.90;;;;;;4994969;28;21046;-71
2021/12/30 09:21:49;;;;;;;1.50;1.40;;;13.30;99.90;;;;;;4995250;28;20642;-71
2021/12/30 09:24:16;;;;;;;2.10;1.50;;;13.30;99.90;;;;;;4995265;28;20596;-71
2021/12/30 09:26:42;;;;;;;1.80;1.13;;;13.40;99.90;;;;;;4995305;28;20999;-72
2021/12/30 09:29:12;;;;;;;2.70;1.10;;;13.40;99.90;;;;;;4995415;28;21108;-71
2021/12/30 09:31:46;;;;;;;1.77;1.40;;;13.40;99.90;;;;;;4962448;28;20666;-72
2021/12/30 09:34:13;;;;;;;1.20;1.10;;;13.40;99.90;;;;;;4995105;28;20588;-71
2021/12/30 09:36:40;;;;;;;2.37;1.23;;;13.50;99.90;;;;;;4995816;28;20610;-72
2021/12/30 09:39:13;;;;;;;2.33;1.70;;;13.50;99.90;;;;;;4994786;28;20632;-71
2021/12/30 09:41:43;;;;;;;3.10;1.47;;;13.40;99.90;;;;;;4995121;28;20553;-71
2021/12/30 09:44:12;;;;;;;1.50;1.40;;;13.50;99.90;;;;;;4994807;28;20564;-71
2021/12/30 09:46:39;;;;;;;1.10;1.10;;;13.40;99.90;;;;;;4994740;28;20661;-72
2021/12/30 09:49:08;;;;;;;1.10;1.10;;;13.40;99.90;;;;;;4994316;28;21184;-73
2021/12/30 09:51:35;;;;;;;2.23;1.13;;;13.50;99.90;;;;;;4994322;28;20612;-72
2021/12/30 09:54:03;;;;;;;1.63;1.53;;;13.40;99.90;;;;;;4994646;28;20618;-72
2021/12/30 09:56:30;;;;;;;1.13;1.03;;;13.50;99.90;;;;;;4994644;28;20580;-72
2021/12/30 09:58:57;;;;;;;3.73;1.43;;;13.50;99.90;;;;;;4994512;28;21194;-73
2021/12/30 10:01:23;;;;;;;3.80;1.53;;;13.50;99.90;;;;;;4995715;28;20603;-72
2021/12/30 10:03:55;;;;;;;2.80;1.13;;;13.50;99.90;;;;;;4994828;28;20618;-71
2021/12/30 10:06:21;;;;;;;1.63;1.52;;;13.50;99.90;;;;;;4995098;28;20649;-71
2021/12/30 10:08:57;;;;;;;1.60;1.50;;;13.50;99.90;;;;;;4994479;28;20674;-71
2021/12/30 10:11:24;;;;;;;1.37;1.27;;;13.50;99.90;;;;;;4994427;28;20613;-71
2021/12/30 10:13:56;;;;;;;1.97;1.37;;;13.50;99.90;;;;;;4994248;28;20607;-70
2021/12/30 10:16:24;;;;;;;1.57;1.47;;;13.50;99.90;;;;;;4994261;28;20596;-71
2021/12/30 10:18:52;;;;;;;1.60;1.07;;;13.50;99.90;;;;;;4994245;28;20661;-70
2021/12/30 10:21:30;;;;;;;1.13;1.13;;;13.60;99.90;;;;;;4993928;28;20628;-71
2021/12/30 10:24:00;;;;;;;3.20;1.80;;;13.60;99.90;;;;;;4995108;28;20552;-71
2021/12/30 10:26:27;;;;;;;1.80;1.70;;;13.60;99.90;;;;;;4994808;28;20719;-71
2021/12/30 10:28:59;;;;;;;2.00;1.83;;;13.60;99.90;;;;;;4995362;28;20775;-71
2021/12/30 10:31:28;;;;;;;3.03;2.00;;;13.60;99.90;;;;;;4995140;28;20829;-70
2021/12/30 10:33:59;;;;;;;3.23;2.13;;;13.60;99.90;;;;;;4994589;28;21016;-71
2021/12/30 10:36:31;;;;;;;2.60;1.90;;;13.60;99.90;;;;;;4994275;28;20969;-71
2021/12/30 10:39:28;;;;;;;2.17;2.07;;;13.60;99.90;;;;;;4996625;28;20605;-71
2021/12/30 10:42:21;;;;;;;1.93;1.77;;;13.60;99.90;;;;;;4994416;28;20669;-71
2021/12/30 10:45:00;;;;;;;2.37;2.17;;;13.60;99.90;;;;;;4995130;28;20654;-71
2021/12/30 10:47:29;;;;;;;2.40;1.80;;;13.60;99.90;;;;;;4994678;28;20956;-71
2021/12/30 10:50:08;;;;;;;3.23;2.77;;;13.60;99.90;;;;;;4994733;28;20716;-71
2021/12/30 10:52:46;;;;;;;4.43;2.20;;;13.60;99.90;;;;;;4994814;28;20586;-71
2021/12/30 10:55:14;;;;;;;2.33;2.13;;;13.60;99.90;;;;;;4994748;28;21121;-71
2021/12/30 10:57:40;;;;;;;8.13;3.63;;;13.60;99.90;;;;;;4995129;28;20645;-71
2021/12/30 11:00:09;;;;;;;2.53;2.20;;;13.60;99.90;;;;;;4995805;28;20613;-71
2021/12/30 11:02:36;;;;;;;2.70;2.47;;;13.60;99.90;;;;;;4998576;28;20588;-71
2021/12/30 11:05:10;;;;;;;1.93;1.83;;;13.70;99.90;;;;;;4998249;28;21018;-71
2021/12/30 11:07:46;;;;;;;1.70;1.60;;;13.70;99.90;;;;;;4980734;28;21006;-71
2021/12/30 11:10:15;;;;;;;1.60;1.33;;;13.70;99.90;;;;;;4997410;28;20622;-71
2021/12/30 11:12:45;;;;;;;1.40;1.33;;;13.70;99.90;;;;;;4997882;28;21082;-71
2021/12/30 11:15:21;;;;;;;1.53;1.40;;;13.70;99.90;;;;;;4997642;28;20584;-71
2021/12/30 11:17:48;;;;;;;6.13;1.47;;;13.80;99.90;;;;;;4997475;28;20645;-71
2021/12/30 11:20:17;;;;;;;1.50;1.40;;;13.80;99.90;;;;;;4997094;28;20604;-71
2021/12/30 11:22:47;;;;;;;2.47;1.30;;;13.80;99.90;;;;;;4997311;28;20618;-71
2021/12/30 11:25:17;;;;;;;2.10;2.00;;;13.90;99.90;;;;;;4997562;28;20634;-71
2021/12/30 11:27:44;;;;;;;2.63;1.67;;;13.90;99.90;;;;;;4997608;28;20630;-71
2021/12/30 11:30:14;;;;;;;1.50;1.40;;;13.90;99.90;;;;;;4997819;28;20628;-71
2021/12/30 11:32:45;;;;;;;1.33;1.23;;;14.00;99.90;;;;;;4998063;28;20614;-71
2021/12/30 11:35:12;;;;;;;2.03;1.37;;;14.00;99.90;;;;;;4997350;28;20963;-71
2021/12/30 11:37:38;;;;;;;1.63;1.20;;;14.00;99.90;;;;;;4997783;28;20613;-71
2021/12/30 11:40:09;;;;;;;1.30;1.20;;;14.10;99.90;;;;;;4997532;28;20664;-71
2021/12/30 11:42:39;;;;;;;1.53;0.90;;;14.20;99.90;;;;;;4997510;28;21018;-71
2021/12/30 11:45:31;;;;;;;1.07;1.00;;;14.30;99.90;;;;;;4996629;28;20622;-71
2021/12/30 11:48:03;;;;;;;0.77;0.77;;;14.30;99.90;;;;;;4983962;28;20625;-72
2021/12/30 11:50:37;;;;;;;2.50;0.77;;;14.30;99.90;;;;;;4998655;28;20578;-72
2021/12/30 11:53:26;;;;;;;2.70;1.80;;;14.40;99.90;;;;;;4999239;28;20687;-71
2021/12/30 11:56:00;;;;;;;1.90;1.80;;;14.50;99.90;;;;;;4999321;28;20681;-72
2021/12/30 11:58:29;;;;;;;1.33;1.00;;;14.50;99.90;;;;;;4998972;28;21253;-72
2021/12/30 12:00:57;;;;;;;1.10;1.00;;;14.60;99.90;;;;;;5000190;28;20606;-72
2021/12/30 12:03:34;;;;;;;0.97;0.87;;;14.60;99.90;;;;;;4999168;28;20622;-72
2021/12/30 12:06:04;;;;;;;1.10;1.00;;;14.60;99.90;;;;;;4999452;28;20638;-72
2021/12/30 12:08:43;;;;;;;1.00;1.00;;;14.60;99.90;;;;;;4999133;28;20626;-72
2021/12/30 12:11:16;;;;;;;2.10;1.10;;;14.60;99.90;;;;;;4999528;28;20574;-72
2021/12/30 12:13:44;;;;;;;0.80;0.80;;;14.70;99.90;;;;;;4999722;28;20640;-73
2021/12/30 12:16:13;;;;;;;1.10;0.90;;;14.70;99.90;;;;;;5001966;28;20621;-73
2021/12/30 12:19:06;;;;;;;1.47;1.10;;;14.70;99.90;;;;;;4998680;28;21065;-72
2021/12/30 12:21:41;;;;;;;0.97;0.77;;;14.80;99.90;;;;;;4999192;28;20720;-72
2021/12/30 12:24:39;;;;;;;1.93;1.00;;;14.80;99.90;;;;;;4981857;28;20712;-70
2021/12/30 12:27:09;;;;;;;1.00;0.90;;;14.80;99.90;;;;;;4988135;28;20992;-73
2021/12/30 12:29:52;;;;;;;4.27;0.90;;;14.80;99.90;;;;;;4980990;28;20640;-70
2021/12/30 12:32:30;;;;;;;0.80;0.80;;;14.80;99.90;;;;;;5001249;28;20652;-70
2021/12/30 12:34:58;;;;;;;4.20;1.10;;;14.90;99.90;;;;;;5000295;28;20625;-71
2021/12/30 12:37:33;;;;;;;0.97;0.87;;;14.90;99.90;;;;;;4997963;28;20976;-70
2021/12/30 12:40:07;;;;;;;1.13;1.03;;;14.90;99.90;;;;;;4998931;28;20684;-72
2021/12/30 12:42:42;;;;;;;0.90;0.90;;;14.90;99.90;;;;;;4997823;28;20581;-72
2021/12/30 12:45:24;;;;;;;0.80;0.80;;;15.00;99.90;;;;;;4997888;28;20601;-72
2021/12/30 12:48:21;;;;;;;0.83;0.83;;;15.00;99.90;;;;;;4999130;28;20622;-73
2021/12/30 12:50:53;;;;;;;1.43;1.30;;;15.00;99.90;;;;;;4999452;28;20960;-71
2021/12/30 12:53:28;;;;;;;2.20;2.10;;;15.00;99.90;;;;;;4996487;28;20625;-72
2021/12/30 12:56:01;;;;;;;1.83;1.00;;;15.00;99.90;;;;;;4996007;28;20609;-71